Time;durP1;ratioP1;P1;durP2;ratioP2;P2;SDS_P1;SDS_P2;PMS_P1;PMS_P2;Temp;Humidity;BMP_temperature;BMP_pressure;BME280_temperature;BME280_humidity;BME280_pressure;Samples;Min_cycle;Max_cycle;Signal;HPM_P1;HPM_P2
2022/06/21 00:01:31;;;;;;;;;;;25.00;42.70;;;29.22;27.54;101162.09;5116445;28;19916;-13
2022/06/21 00:03:57;;;;;;;;;;;25.00;42.70;;;29.22;27.47;101157.59;5116716;28;19916;-12
2022/06/21 00:06:25;;;;;;;;;;;25.00;42.70;;;29.22;27.33;101160.28;5097792;28;19923;-13
2022/06/21 00:08:51;;;;;;;;;;;25.10;42.80;;;29.22;27.42;101151.34;5115918;28;19923;-13
2022/06/21 00:11:30;;;;;;;;;;;25.00;42.70;;;29.25;27.41;101164.53;5116319;28;19922;-13
2022/06/21 00:13:56;;;;;;;;;;;25.00;42.70;;;29.23;27.52;101164.66;5116193;28;19915;-12
2022/06/21 00:16:23;;;;;;;;;;;25.00;42.70;;;29.22;27.17;101152.22;5115537;28;19978;-13
2022/06/21 00:18:49;;;;;;;;;;;25.00;42.70;;;29.20;27.40;101159.56;5097734;28;19951;-13
2022/06/21 00:21:18;;;;;;;;;;;25.00;42.70;;;29.23;27.36;101164.66;5097638;28;19985;-12
2022/06/21 00:23:44;;;;;;;;;;;25.00;42.70;;;29.22;27.34;101164.81;5095585;28;19963;-13
2022/06/21 00:26:12;;;;;;;;;;;25.00;42.70;;;29.16;27.31;101153.56;5115812;28;19954;-13
2022/06/21 00:28:38;;;;;;;;;;;25.00;42.70;;;29.21;27.27;101166.66;5114428;28;19968;-13
2022/06/21 00:31:25;;;;;;;;;;;25.00;42.70;;;29.21;27.18;101172.03;5115641;28;20376;-13
2022/06/21 00:33:51;;;;;;;;;;;25.00;42.70;;;29.19;27.56;101180.25;5096377;28;19916;-13
2022/06/21 00:36:29;;;;;;;;;;;25.00;42.70;;;29.18;27.55;101173.16;5096585;28;19969;-13
2022/06/21 00:38:56;;;;;;;;;;;25.00;42.70;;;29.18;27.20;101175.84;5115722;28;19972;-13
2022/06/21 00:41:39;;;;;;;;;;;25.00;42.70;;;29.21;27.37;101181.97;5115876;28;19985;-13
2022/06/21 00:44:10;;;;;;;;;;;25.00;42.80;;;29.15;27.36;101178.81;5115462;28;19916;-12
2022/06/21 00:47:17;;;;;;;;;;;25.00;42.80;;;29.21;27.45;101184.66;5097140;28;20373;-12
2022/06/21 00:49:53;;;;;;;;;;;25.00;42.80;;;29.13;27.21;101172.69;5097488;28;19915;-13
2022/06/21 00:52:23;;;;;;;;;;;25.00;42.80;;;29.17;27.49;101174.16;5095855;28;19923;-12
2022/06/21 00:54:57;;;;;;;;;;;25.00;42.80;;;29.14;27.19;101168.19;5115637;28;20310;-12
2022/06/21 00:57:27;;;;;;;;;;;25.00;42.80;;;29.18;27.42;101178.53;5096860;28;20381;-12
2022/06/21 00:59:54;;;;;;;;;;;25.00;42.80;;;29.19;27.28;101174.03;5115549;28;19964;-13
2022/06/21 01:02:24;;;;;;;;;;;25.00;42.80;;;29.17;27.44;101173.31;5115292;28;19915;-13
2022/06/21 01:04:53;;;;;;;;;;;25.00;42.80;;;29.13;27.14;101171.88;5097529;28;19923;-12
2022/06/21 01:07:19;;;;;;;;;;;25.00;42.80;;;29.18;27.45;101177.69;5115651;28;19923;-12
2022/06/21 01:09:52;;;;;;;;;;;25.00;42.80;;;29.19;27.26;101182.09;5115150;28;19916;-13
2022/06/21 01:12:30;;;;;;;;;;;25.00;42.80;;;29.13;27.34;101170.00;5096869;28;19916;-12
2022/06/21 01:14:59;;;;;;;;;;;25.00;42.80;;;29.11;27.46;101172.00;5097078;28;19927;-13
2022/06/21 01:17:25;;;;;;;;;;;24.90;42.80;;;29.12;27.32;101175.53;5096536;28;19965;-13
2022/06/21 01:19:55;;;;;;;;;;;24.90;42.70;;;29.16;27.31;101179.66;5114987;28;19922;-13
2022/06/21 01:22:32;;;;;;;;;;;25.00;42.80;;;29.09;27.42;101165.91;5114968;28;20078;-13
2022/06/21 01:25:27;;;;;;;;;;;25.00;42.80;;;29.12;27.62;101176.41;5115217;28;20373;-12
2022/06/21 01:27:55;;;;;;;;;;;24.90;42.80;;;29.14;27.33;101187.88;5096455;28;19947;-13
2022/06/21 01:30:27;;;;;;;;;;;24.90;42.80;;;29.12;27.30;101180.91;5115461;28;19923;-13
2022/06/21 01:32:55;;;;;;;;;;;25.00;42.80;;;29.14;27.30;101185.19;5114622;28;19916;-13
2022/06/21 01:35:28;;;;;;;;;;;24.90;42.80;;;29.13;27.30;101191.56;5096400;28;19923;-12
2022/06/21 01:37:55;;;;;;;;;;;24.90;42.80;;;29.07;27.23;101178.69;5114972;28;19959;-12
2022/06/21 01:40:25;;;;;;;;;;;24.90;42.80;;;29.09;27.22;101186.63;5115198;28;19915;-13
2022/06/21 01:42:54;;;;;;;;;;;24.90;42.80;;;29.08;27.49;101183.06;5114512;28;19958;-13
2022/06/21 01:45:24;;;;;;;;;;;24.90;42.80;;;29.13;27.57;101188.84;5096628;28;20010;-13
2022/06/21 01:47:53;;;;;;;;;;;24.90;42.80;;;29.13;27.37;101188.84;5095952;28;19916;-13
2022/06/21 01:50:20;;;;;;;;;;;24.90;42.80;;;29.11;27.42;101185.47;5114399;28;19916;-12
2022/06/21 01:52:48;;;;;;;;;;;24.90;42.80;;;29.12;27.35;101181.78;5114472;28;20002;-12
2022/06/21 01:55:21;;;;;;;;;;;24.90;42.80;;;29.10;27.45;101185.59;5096353;28;19916;-12
2022/06/21 01:57:48;;;;;;;;;;;24.90;42.80;;;29.05;27.41;101183.31;5114344;28;19922;-13
2022/06/21 02:00:14;;;;;;;;;;;24.90;42.90;;;29.10;27.42;101186.47;5096035;28;19971;-13
2022/06/21 02:02:43;;;;;;;;;;;24.90;42.80;;;29.10;27.45;101175.72;5114168;28;20018;-13
2022/06/21 02:05:13;;;;;;;;;;;24.90;42.80;;;29.07;27.05;101165.22;5095929;28;19915;-13
2022/06/21 02:07:49;;;;;;;;;;;24.90;42.80;;;29.08;27.33;101166.06;5096072;28;19916;-13
2022/06/21 02:10:32;;;;;;;;;;;24.90;42.90;;;29.08;27.22;101163.38;5114151;28;19969;-13
2022/06/21 02:13:06;;;;;;;;;;;24.90;42.80;;;29.08;27.60;101174.97;5094374;28;20015;-12
2022/06/21 02:15:38;;;;;;;;;;;24.90;42.80;;;29.09;27.61;101162.38;5094178;28;19916;-13
2022/06/21 02:18:09;;;;;;;;;;;24.90;42.80;;;29.05;27.45;101161.78;5114261;28;19915;-13
2022/06/21 02:20:53;;;;;;;;;;;24.90;42.90;;;29.07;27.28;101164.34;5114363;28;19990;-13
2022/06/21 02:23:22;;;;;;;;;;;24.90;42.90;;;29.04;27.35;101165.50;5094195;28;19922;-13
2022/06/21 02:25:49;;;;;;;;;;;24.90;42.90;;;29.01;27.20;101157.69;5113796;28;19923;-13
2022/06/21 02:28:17;;;;;;;;;;;24.90;42.90;;;29.04;27.57;101167.34;5095287;28;19915;-13
2022/06/21 02:30:44;;;;;;;;;;;24.90;42.90;;;29.03;27.58;101166.47;5113783;28;19965;-13
2022/06/21 02:33:18;;;;;;;;;;;24.90;42.90;;;29.06;27.34;101163.50;5113732;28;20376;-13
2022/06/21 02:35:53;;;;;;;;;;;24.90;42.90;;;29.06;27.33;101158.13;5095572;28;19915;-12
2022/06/21 02:38:32;;;;;;;;;;;24.90;42.90;;;29.00;27.63;101159.53;5093284;28;20364;-13
2022/06/21 02:41:11;;;;;;;;;;;24.90;42.90;;;29.04;27.39;101162.81;5113678;28;19922;-13
2022/06/21 02:43:39;;;;;;;;;;;24.80;42.80;;;28.99;27.45;101151.59;5095447;28;19923;-13
2022/06/21 02:46:14;;;;;;;;;;;24.90;42.90;;;28.99;27.36;101157.00;5095390;28;20387;-12
2022/06/21 02:48:43;;;;;;;;;;;24.90;42.90;;;29.04;27.38;101165.50;5094047;28;19916;-12
2022/06/21 02:51:17;;;;;;;;;;;24.90;42.90;;;29.00;27.36;101159.53;5113551;28;20003;-12
2022/06/21 02:54:10;;;;;;;;;;;24.80;42.90;;;29.04;27.53;101170.88;5095241;28;20417;-13
2022/06/21 02:56:43;;;;;;;;;;;24.80;42.80;;;28.98;27.27;101161.50;5113563;28;19916;-13
2022/06/21 02:59:10;;;;;;;;;;;24.90;42.90;;;28.99;27.37;101170.44;5114450;28;19915;-13
2022/06/21 03:01:58;;;;;;;;;;;24.90;42.90;;;29.04;27.57;101175.41;5120010;28;19969;-13
2022/06/21 03:04:32;;;;;;;;;;;24.80;42.80;;;28.99;27.25;101173.16;5102142;28;20014;-13
2022/06/21 03:06:58;;;;;;;;;;;24.80;42.90;;;28.99;27.57;101165.91;5120076;28;20283;-13
2022/06/21 03:09:24;;;;;;;;;;;24.80;42.80;;;29.00;27.41;101173.00;5102172;28;19922;-13
2022/06/21 03:11:53;;;;;;;;;;;24.90;42.80;;;29.04;27.55;101172.72;5120447;28;19915;-13
2022/06/21 03:14:22;;;;;;;;;;;24.90;42.80;;;29.05;27.28;101177.94;5101730;28;19923;-12
2022/06/21 03:16:48;;;;;;;;;;;24.90;42.80;;;29.02;27.59;101168.31;5119865;28;19921;-13
2022/06/21 03:19:23;;;;;;;;;;;24.90;42.80;;;28.99;27.43;101163.22;5101751;28;20006;-13
2022/06/21 03:21:49;;;;;;;;;;;24.90;42.70;;;29.05;27.58;101174.41;5101158;28;19915;-13
2022/06/21 03:24:18;;;;;;;;;;;24.90;42.70;;;29.05;27.42;101169.03;5120296;28;19916;-13
2022/06/21 03:26:48;;;;;;;;;;;24.90;42.70;;;29.06;27.36;101159.97;5101745;28;19964;-12
2022/06/21 03:29:14;;;;;;;;;;;24.90;42.60;;;29.08;27.25;101168.75;5100336;28;20326;-13
2022/06/21 03:31:43;;;;;;;;;;;25.00;42.60;;;29.13;27.30;101180.78;5102107;28;19966;-12
2022/06/21 03:34:13;;;;;;;;;;;25.00;42.60;;;29.08;27.41;101166.91;5102278;28;20275;-13
2022/06/21 03:36:39;;;;;;;;;;;25.00;42.60;;;29.11;27.35;101172.00;5119874;28;19915;-13
2022/06/21 03:39:08;;;;;;;;;;;25.00;42.50;;;29.13;27.38;101170.00;5119630;28;19925;-12
2022/06/21 03:41:43;;;;;;;;;;;25.00;42.50;;;29.19;27.21;101188.34;5101353;28;19916;-13
2022/06/21 03:44:37;;;;;;;;;;;25.00;42.50;;;29.20;27.38;101189.19;5119794;28;19916;-12
2022/06/21 03:47:19;;;;;;;;;;;25.10;42.50;;;29.21;27.29;101192.75;5101214;28;20423;-13
2022/06/21 03:49:47;;;;;;;;;;;25.10;42.40;;;29.25;27.36;101188.75;5101400;28;19916;-12
2022/06/21 03:52:41;;;;;;;;;;;25.20;42.40;;;29.29;27.19;101193.72;5119605;28;19964;-12
2022/06/21 03:55:29;;;;;;;;;;;25.20;42.30;;;29.30;27.17;101181.97;5119396;28;19923;-12
2022/06/21 03:58:12;;;;;;;;;;;25.30;42.30;;;29.32;27.32;101185.38;5119692;28;19938;-13
2022/06/21 04:01:06;;;;;;;;;;;25.30;42.80;;;29.41;27.36;101196.28;5119282;28;19915;-12
2022/06/21 04:03:43;;;;;;;;;;;25.40;42.20;;;29.41;27.07;101202.50;5115779;28;20008;-13
2022/06/21 04:06:22;;;;;;;;;;;25.40;42.10;;;29.46;27.26;101194.84;5101041;28;19945;-13
2022/06/21 04:09:04;;;;;;;;;;;25.50;42.10;;;29.50;27.26;101203.47;5099425;28;20283;-13
2022/06/21 04:11:44;;;;;;;;;;;25.60;42.10;;;29.54;27.17;101216.53;5098759;28;19915;-13
2022/06/21 04:14:27;;;;;;;;;;;25.60;42.00;;;29.50;27.25;101207.06;5116577;28;19923;-13
2022/06/21 04:17:10;;;;;;;;;;;25.60;41.90;;;29.57;27.10;101207.31;5096762;28;19916;-12
2022/06/21 04:19:56;;;;;;;;;;;25.70;41.90;;;29.66;27.00;101211.84;5116535;28;19923;-12
2022/06/21 04:22:28;;;;;;;;;;;25.70;41.80;;;29.67;27.03;101210.84;5097654;28;20338;-12
2022/06/21 04:24:59;;;;;;;;;;;25.80;41.80;;;29.74;27.10;101219.22;5116230;28;19938;-13
2022/06/21 04:27:38;;;;;;;;;;;25.80;41.80;;;29.77;27.00;101218.06;5097774;28;19922;-12
2022/06/21 04:30:12;;;;;;;;;;;25.90;41.70;;;29.81;27.13;101217.66;5093661;28;19966;-13
2022/06/21 04:32:47;;;;;;;;;;;25.90;41.70;;;29.84;27.09;101217.38;5097575;28;19916;-12
2022/06/21 04:35:28;;;;;;;;;;;25.90;41.60;;;29.81;26.78;101216.81;5097702;28;19962;-12
2022/06/21 04:38:05;;;;;;;;;;;25.90;41.60;;;29.88;26.97;101218.78;5097576;28;19923;-13
2022/06/21 04:40:46;;;;;;;;;;;26.00;41.70;;;29.88;26.99;101215.22;5097429;28;20406;-13
2022/06/21 04:43:18;;;;;;;;;;;26.00;41.60;;;29.92;26.82;101220.19;5115337;28;19916;-13
2022/06/21 04:45:52;;;;;;;;;;;26.10;41.60;;;30.01;26.90;101225.72;5096854;28;20018;-12
2022/06/21 04:48:33;;;;;;;;;;;26.10;41.50;;;30.04;26.80;101222.72;5096490;28;20299;-13
2022/06/21 04:51:13;;;;;;;;;;;26.10;41.40;;;30.07;26.73;101225.97;5096236;28;20002;-13
2022/06/21 04:53:58;;;;;;;;;;;26.20;41.40;;;30.07;26.58;101219.72;5115936;28;19915;-13
2022/06/21 04:56:24;;;;;;;;;;;26.20;41.40;;;30.13;26.83;101229.06;5097022;28;19916;-12
2022/06/21 04:58:50;;;;;;;;;;;26.20;41.40;;;30.17;26.85;101235.88;5115458;28;20411;-12
2022/06/21 05:01:37;;;;;;;;;;;26.30;41.30;;;30.20;26.66;101228.31;5115341;28;20397;-12
2022/06/21 05:04:24;;;;;;;;;;;26.30;41.30;;;30.22;26.76;101234.44;5115601;28;19965;-12
2022/06/21 05:06:51;;;;;;;;;;;26.30;41.30;;;30.22;26.70;101236.28;5115287;28;19915;-13
2022/06/21 05:09:19;;;;;;;;;;;26.30;41.20;;;30.23;26.74;101229.88;5115287;28;20359;-13
2022/06/21 05:11:46;;;;;;;;;;;26.40;41.10;;;30.25;26.72;101228.72;5115205;28;19945;-13
2022/06/21 05:14:18;;;;;;;;;;;26.40;41.00;;;30.30;26.57;101222.91;5096721;28;19915;-13
2022/06/21 05:16:44;;;;;;;;;;;26.50;41.00;;;30.32;26.63;101225.44;5077969;28;20010;-13
2022/06/21 05:19:19;;;;;;;;;;;26.50;40.90;;;30.33;26.48;101219.06;5114779;28;19920;-12
2022/06/21 05:21:50;;;;;;;;;;;26.50;40.90;;;30.40;26.26;101223.72;5115031;28;19923;-13
2022/06/21 05:24:16;;;;;;;;;;;26.50;40.90;;;30.47;26.54;101232.06;5096291;28;19923;-13
2022/06/21 05:26:47;;;;;;;;;;;26.60;40.90;;;30.49;26.40;101235.50;5114714;28;19920;-12
2022/06/21 05:29:19;;;;;;;;;;;26.60;40.80;;;30.48;26.46;101223.84;5114858;28;20387;-13
2022/06/21 05:31:47;;;;;;;;;;;26.60;40.80;;;30.53;26.34;101219.84;5096410;28;20279;-13
2022/06/21 05:34:17;;;;;;;;;;;26.70;40.80;;;30.56;26.40;101219.56;5096350;28;19916;-13
2022/06/21 05:37:05;;;;;;;;;;;26.70;40.80;;;30.63;26.42;101228.75;5096230;28;19922;-13
2022/06/21 05:39:36;;;;;;;;;;;26.70;40.70;;;30.60;26.30;101223.66;5114846;28;19923;-13
2022/06/21 05:42:04;;;;;;;;;;;26.70;40.70;;;30.63;26.22;101229.59;5096376;28;19916;-13
2022/06/21 05:44:46;;;;;;;;;;;26.70;40.70;;;30.71;26.26;101234.25;5114413;28;19922;-12
2022/06/21 05:47:32;;;;;;;;;;;26.80;40.70;;;30.74;26.35;101236.66;5114682;28;20002;-13
2022/06/21 05:49:59;;;;;;;;;;;26.80;40.70;;;30.70;26.28;101215.50;5096023;28;19916;-13
2022/06/21 05:52:37;;;;;;;;;;;26.80;40.60;;;30.73;26.14;101223.31;5114331;28;19915;-12
2022/06/21 05:55:31;;;;;;;;;;;26.80;40.60;;;30.78;26.00;101229.09;5114511;28;19923;-12
2022/06/21 05:58:07;;;;;;;;;;;26.80;40.50;;;30.84;26.05;101233.91;5114082;28;20010;-12
2022/06/21 06:00:41;;;;;;;;;;;26.90;40.50;;;30.87;26.03;101222.75;5095898;28;20357;-12
2022/06/21 06:03:14;;;;;;;;;;;26.90;40.40;;;30.91;26.00;101232.28;5113931;28;20284;-12
2022/06/21 06:05:40;;;;;;;;;;;27.00;40.40;;;30.93;25.88;101227.56;5113083;28;19922;-13
2022/06/21 06:08:21;;;;;;;;;;;27.00;40.40;;;30.95;25.88;101227.44;5094016;28;19915;-12
2022/06/21 06:10:47;;;;;;;;;;;27.00;40.30;;;30.98;26.02;101236.09;5113735;28;20432;-13
2022/06/21 06:13:17;;;;;;;;;;;27.10;40.40;;;31.01;25.91;101234.94;5094998;28;20006;-12
2022/06/21 06:15:50;;;;;;;;;;;27.10;40.40;;;31.07;25.81;101241.56;5094468;28;19916;-13
2022/06/21 06:18:23;;;;;;;;;;;27.10;40.40;;;31.02;25.82;101233.94;5094728;28;19963;-12
2022/06/21 06:20:59;;;;;;;;;;;27.10;40.40;;;31.07;25.88;101234.31;5094614;28;19916;-12
2022/06/21 06:23:36;;;;;;;;;;;27.10;40.40;;;31.05;25.74;101232.78;5093516;28;19916;-13
2022/06/21 06:26:07;;;;;;;;;;;27.10;40.30;;;31.10;25.64;101230.47;5113860;28;19915;-12
2022/06/21 06:28:40;;;;;;;;;;;27.10;40.30;;;31.17;25.68;101228.84;5113638;28;19923;-13
2022/06/21 06:31:19;;;;;;;;;;;27.10;40.30;;;31.18;25.70;101231.41;5095771;28;19919;-12
2022/06/21 06:33:56;;;;;;;;;;;27.10;40.20;;;31.20;25.84;101232.09;5113563;28;19924;-13
2022/06/21 06:36:25;;;;;;;;;;;27.20;40.20;;;31.16;25.39;101222.59;5113076;28;19923;-12
2022/06/21 06:38:52;;;;;;;;;;;27.20;40.30;;;31.25;25.60;101233.50;5113182;28;19922;-12
2022/06/21 06:41:42;;;;;;;;;;;27.20;40.20;;;31.29;25.55;101234.88;5095266;28;20363;-12
2022/06/21 06:44:14;;;;;;;;;;;27.20;40.20;;;31.23;25.67;101233.63;5095228;28;19915;-12
2022/06/21 06:46:43;;;;;;;;;;;27.30;40.20;;;31.28;25.43;101238.59;5113498;28;19961;-13
2022/06/21 06:49:29;;;;;;;;;;;27.30;40.10;;;31.32;25.68;101248.91;5113436;28;19923;-12
2022/06/21 06:52:22;;;;;;;;;;;27.30;40.10;;;31.30;25.66;101237.41;5113400;28;20383;-12
2022/06/21 06:54:52;;;;;;;;;;;27.30;40.10;;;31.38;25.56;101248.28;5082859;28;20378;-12
2022/06/21 06:57:18;;;;;;;;;;;27.30;40.10;;;31.37;25.63;101241.22;5093022;28;19961;-12
2022/06/21 06:59:44;;;;;;;;;;;27.30;40.00;;;31.40;25.24;101232.78;5113665;28;19920;-12
2022/06/21 07:02:20;;;;;;;;;;;27.40;40.00;;;31.45;25.41;101245.81;5094337;28;19922;-12
2022/06/21 07:04:48;;;;;;;;;;;27.40;40.00;;;31.42;25.25;101238.03;5094857;28;19920;-13
2022/06/21 07:07:23;;;;;;;;;;;27.40;40.00;;;31.45;25.35;101244.97;5095049;28;20312;-12
2022/06/21 07:09:51;;;;;;;;;;;27.40;40.00;;;31.51;25.18;101250.66;5095162;28;19915;-12
2022/06/21 07:12:20;;;;;;;;;;;27.40;39.90;;;31.54;25.27;101249.47;5094815;28;20109;-12
2022/06/21 07:14:47;;;;;;;;;;;27.50;40.00;;;31.55;25.35;101246.63;5113084;28;19970;-12
2022/06/21 07:17:27;;;;;;;;;;;27.50;39.90;;;31.58;25.25;101254.41;5094724;28;19930;-13
2022/06/21 07:19:55;;;;;;;;;;;27.50;39.90;;;31.56;25.49;101237.50;5094928;28;19915;-12
2022/06/21 07:22:28;;;;;;;;;;;27.50;39.80;;;31.56;25.01;101242.91;5094746;28;19920;-12
2022/06/21 07:25:14;;;;;;;;;;;27.50;39.80;;;31.66;25.12;101248.25;5094680;28;19916;-12
2022/06/21 07:27:42;;;;;;;;;;;27.60;39.80;;;31.62;25.42;101229.78;5094561;28;19916;-13
2022/06/21 07:30:09;;;;;;;;;;;27.60;39.80;;;31.68;25.11;101240.81;5094839;28;19959;-12
2022/06/21 07:32:40;;;;;;;;;;;27.60;39.80;;;31.64;25.38;101230.47;5094671;28;19915;-12
2022/06/21 07:35:11;;;;;;;;;;;27.60;39.80;;;31.64;24.84;101223.19;5094949;28;19954;-12
2022/06/21 07:37:54;;;;;;;;;;;27.60;39.80;;;31.67;24.89;101228.28;5113061;28;19935;-13
2022/06/21 07:40:33;;;;;;;;;;;27.60;39.70;;;31.74;25.14;101229.38;5094725;28;19922;-12
2022/06/21 07:43:13;;;;;;;;;;;27.60;39.60;;;31.74;24.83;101234.78;5094617;28;19915;-12
2022/06/21 07:45:43;;;;;;;;;;;27.70;39.60;;;31.74;25.08;101233.91;5113296;28;19958;-12
2022/06/21 07:48:20;;;;;;;;;;;27.70;39.50;;;31.76;24.82;101240.88;5096458;28;19916;-13
2022/06/21 07:50:49;;;;;;;;;;;27.80;39.60;;;31.82;25.08;101246.66;5097297;28;19922;-12
2022/06/21 07:53:14;;;;;;;;;;;27.80;39.50;;;31.84;25.00;101241.94;5115351;28;20364;-12
2022/06/21 07:55:44;;;;;;;;;;;27.80;39.50;;;31.84;24.77;101244.63;5093171;28;20014;-13
2022/06/21 07:58:15;;;;;;;;;;;27.80;39.50;;;31.83;25.06;101254.63;5096938;28;19916;-12
2022/06/21 08:09:13;;;;;;;;;;;27.80;39.50;;;31.87;24.74;101238.91;5115670;28;20052;-12
2022/06/21 08:11:41;;;;;;;;;;;27.80;39.40;;;31.86;24.90;101251.59;5115987;28;19924;-12
2022/06/21 08:14:08;;;;;;;;;;;27.80;39.40;;;31.82;24.79;101246.66;5113298;28;20014;-12
2022/06/21 08:16:49;;;;;;;;;;;27.80;39.40;;;31.82;24.95;101247.50;5115737;28;19916;-12
2022/06/21 08:19:38;;;;;;;;;;;27.80;39.40;;;31.87;25.07;101252.44;5095324;28;20360;-12
2022/06/21 08:22:18;;;;;;;;;;;27.80;39.50;;;31.81;24.80;101243.13;5097276;28;20030;-12
2022/06/21 08:24:57;;;;;;;;;;;27.80;39.50;;;31.77;24.71;101242.56;5115853;28;19954;-12
2022/06/21 08:27:27;;;;;;;;;;;27.80;39.50;;;31.82;24.75;101255.59;5116214;28;19916;-12
2022/06/21 08:29:57;;;;;;;;;;;27.80;39.60;;;31.77;24.94;101241.72;5115332;28;19916;-12
2022/06/21 08:32:37;;;;;;;;;;;27.70;39.60;;;31.74;24.86;101239.31;5115537;28;20418;-12
2022/06/21 08:35:11;;;;;;;;;;;27.70;39.70;;;31.76;24.98;101237.34;5097763;28;20014;-12
2022/06/21 08:37:44;;;;;;;;;;;27.60;39.70;;;31.74;24.92;101242.03;5097028;28;20388;-13
2022/06/21 08:40:32;;;;;;;;;;;27.50;39.80;;;31.68;24.98;101242.69;5096996;28;20322;-12
2022/06/21 08:43:28;;;;;;;;;;;27.40;40.00;;;31.62;25.02;101251.41;5115280;28;19967;-12
2022/06/21 08:46:38;;;;;;;;;;;27.40;40.10;;;31.57;24.99;101241.06;5042673;28;20399;-12
2022/06/21 08:49:20;;;;;;;;;;;27.50;40.10;;;31.63;25.19;101251.25;5042140;28;19916;-12
2022/06/21 08:52:07;;;;;;;;;;;27.50;40.20;;;31.58;25.15;101248.16;5096723;28;20367;-12
2022/06/21 08:54:45;;;;;;;;;;;27.50;40.30;;;31.61;25.17;101257.81;5115207;28;19916;-12
2022/06/21 08:57:19;;;;;;;;;;;27.50;40.40;;;31.62;25.33;101252.25;5095902;28;19954;-12
2022/06/21 09:00:03;;;;;;;;;;;27.50;40.40;;;31.62;25.12;101259.50;5096367;28;20060;-12
2022/06/21 09:02:47;;;;;;;;;;;27.50;40.30;;;31.62;25.21;101254.09;5114907;28;20397;-12
2022/06/21 09:05:35;;;;;;;;;;;27.50;40.40;;;31.62;25.34;101264.91;5114995;28;20010;-12
2022/06/21 09:08:08;;;;;;;;;;;27.50;40.40;;;31.63;25.32;101261.22;5096808;28;19966;-12
2022/06/21 09:10:40;;;;;;;;;;;27.50;40.40;;;31.64;25.38;101273.72;5114552;28;19961;-12
2022/06/21 09:13:31;;;;;;;;;;;27.50;40.50;;;31.62;25.58;101265.75;5094411;28;20335;-13
2022/06/21 09:15:57;;;;;;;;;;;27.40;40.60;;;31.54;25.40;101263.84;5114878;28;20342;-11
2022/06/21 09:18:46;;;;;;;;;;;27.20;40.80;;;31.44;25.37;101252.25;5114705;28;19954;-13
2022/06/21 09:21:35;;;;;;;;;;;27.10;41.50;;;31.44;25.60;101262.19;5114757;28;20389;-13
2022/06/21 09:24:31;;;;;;;;;;;27.10;41.10;;;31.38;25.38;101260.97;5096223;28;19965;-13
2022/06/21 09:27:04;;;;;;;;;;;27.00;41.20;;;31.31;25.77;101263.44;5095237;28;20413;-13
2022/06/21 09:29:34;;;;;;;;;;;27.00;41.30;;;31.28;25.65;101258.34;5114373;28;19922;-13
2022/06/21 09:32:05;;;;;;;;;;;26.90;41.30;;;31.28;25.43;101269.16;5095100;28;19939;-13
2022/06/21 09:34:59;;;;;;;;;;;26.90;41.30;;;31.24;25.74;101262.38;5114434;28;19923;-13
2022/06/21 09:37:36;;;;;;;;;;;26.90;41.40;;;31.22;25.83;101258.94;5114363;28;19915;-13
2022/06/21 09:40:09;;;;;;;;;;;26.90;41.40;;;31.19;25.82;101268.22;5113652;28;19919;-14
2022/06/21 09:42:46;;;;;;;;;;;26.80;41.30;;;31.14;25.97;101259.72;5113411;28;19929;-13
2022/06/21 09:45:36;;;;;;;;;;;26.80;41.40;;;31.11;25.66;101256.50;5113844;28;19915;-13
2022/06/21 09:48:21;;;;;;;;;;;26.80;41.40;;;31.09;25.72;101259.34;5094252;28;19954;-15
2022/06/21 09:50:55;;;;;;;;;;;26.80;41.40;;;31.08;25.58;101263.03;5112948;28;20295;-14
2022/06/21 09:53:35;;;;;;;;;;;26.80;41.40;;;31.08;25.81;101273.00;5113522;28;19923;-13
2022/06/21 09:56:29;;;;;;;;;;;26.80;41.40;;;31.05;25.94;101263.34;5093775;28;20421;-13
2022/06/21 09:59:03;;;;;;;;;;;26.80;41.40;;;31.07;25.90;101272.13;5113691;28;20420;-12
2022/06/21 10:01:53;;;;;;;;;;;26.70;41.40;;;31.03;26.05;101265.34;5113650;28;19953;-12
2022/06/21 10:04:23;;;;;;;;;;;26.70;41.30;;;31.06;25.96;101278.53;5114132;28;19919;-12
2022/06/21 10:07:13;;;;;;;;;;;26.70;41.30;;;30.99;25.94;101272.91;5095155;28;19922;-12
2022/06/21 10:10:08;;;;;;;;;;;26.70;41.30;;;31.05;25.93;101278.69;5111957;28;19958;-12
2022/06/21 10:12:51;;;;;;;;;;;26.70;41.30;;;30.98;25.93;101267.66;5095068;28;19951;-12
2022/06/21 10:15:32;;;;;;;;;;;26.70;41.30;;;30.98;26.06;101264.94;5093620;28;19925;-13
2022/06/21 10:18:38;;;;;;;;;;;26.70;41.30;;;31.00;25.92;101279.97;5095029;28;20048;-12
2022/06/21 10:21:24;;;;;;;;;;;26.70;41.20;;;30.92;25.93;101257.41;5114457;28;19915;-11
2022/06/21 10:24:09;;;;;;;;;;;26.70;41.30;;;30.98;25.86;101267.66;5092974;28;19916;-14
2022/06/21 10:27:03;;;;;;;;;;;26.70;41.40;;;30.97;25.89;101272.22;5111163;28;20267;-12
2022/06/21 10:29:59;;;;;;;;;;;26.70;41.30;;;30.89;26.09;101266.69;5111490;28;19916;-12
2022/06/21 10:33:03;;;;;;;;;;;26.70;41.40;;;30.93;26.08;101272.63;5110634;28;20048;-12
2022/06/21 10:35:55;;;;;;;;;;;26.70;41.30;;;30.87;26.02;101271.38;5112301;28;19923;-12
2022/06/21 10:38:47;;;;;;;;;;;26.70;41.40;;;30.85;25.96;101258.00;5112486;28;20375;-13
2022/06/21 10:41:39;;;;;;;;;;;26.70;41.30;;;30.89;26.01;101272.09;5112995;28;19923;-12
2022/06/21 10:44:10;;;;;;;;;;;26.70;41.40;;;30.89;26.10;101265.81;5113132;28;20044;-12
2022/06/21 10:46:39;;;;;;;;;;;26.60;41.30;;;30.84;26.16;101261.72;5113117;28;19916;-12
2022/06/21 10:49:22;;;;;;;;;;;26.60;41.30;;;30.87;25.91;101262.41;5094173;28;19919;-12
2022/06/21 10:52:28;;;;;;;;;;;26.60;41.40;;;30.87;26.25;101262.41;5112695;28;19915;-13
2022/06/21 10:55:15;;;;;;;;;;;26.70;41.40;;;30.74;26.07;101233.94;5094339;28;20379;-12
2022/06/21 10:57:54;;;;;;;;;;;26.70;41.40;;;30.84;26.05;101245.53;5112914;28;19919;-12
2022/06/21 11:03:49;;;;;;;;;;;26.60;41.40;;;30.80;26.06;101241.41;5111683;28;19915;-12
2022/06/21 11:06:41;;;;;;;;;;;26.60;41.40;;;30.81;26.09;101223.38;5112090;28;20018;-12
2022/06/21 11:09:15;;;;;;;;;;;26.60;41.40;;;30.82;26.13;101222.38;5092561;28;19941;-14
2022/06/21 11:11:55;;;;;;;;;;;26.60;41.40;;;30.84;26.23;101234.72;5094662;28;19988;-12
2022/06/21 11:14:45;;;;;;;;;;;26.60;41.30;;;30.80;26.25;101233.31;5112548;28;20279;-11
2022/06/21 11:17:26;;;;;;;;;;;26.60;41.30;;;30.83;26.22;101224.09;5093824;28;19916;-13
2022/06/21 11:20:03;;;;;;;;;;;26.60;41.40;;;30.83;26.27;101218.69;5111706;28;19916;-13
2022/06/21 11:22:48;;;;;;;;;;;26.60;41.40;;;30.77;26.30;101206.66;5096347;28;20280;-12
2022/06/21 11:25:34;;;;;;;;;;;26.60;41.40;;;30.81;25.87;101218.84;5115053;28;19927;-13
2022/06/21 11:28:06;;;;;;;;;;;26.60;41.40;;;30.79;26.13;101215.44;5113303;28;19926;-14
2022/06/21 11:31:07;;;;;;;;;;;26.60;41.40;;;30.82;26.22;101214.28;5094576;28;19947;-13
2022/06/21 11:33:49;;;;;;;;;;;26.60;41.40;;;30.73;25.99;101207.94;5095163;28;19916;-12
2022/06/21 11:36:31;;;;;;;;;;;26.60;41.40;;;30.79;26.15;101220.84;5096383;28;20371;-13
2022/06/21 11:39:20;;;;;;;;;;;26.60;41.40;;;30.79;26.23;101220.84;5096774;28;19963;-12
2022/06/21 11:42:20;;;;;;;;;;;26.60;41.40;;;30.72;26.27;101210.78;5115503;28;19927;-12
2022/06/21 11:45:14;;;;;;;;;;;26.60;41.50;;;30.72;26.25;101211.63;5097874;28;19923;-13
2022/06/21 11:48:21;;;;;;;;;;;26.60;41.50;;;30.76;26.31;101217.59;5114820;28;19915;-12
2022/06/21 11:50:56;;;;;;;;;;;26.60;41.50;;;30.74;26.26;101231.25;5114819;28;19926;-12
2022/06/21 11:53:49;;;;;;;;;;;26.60;41.40;;;30.77;26.22;101230.06;5096877;28;19923;-13
2022/06/21 11:56:52;;;;;;;;;;;26.60;42.00;;;30.77;26.14;101221.97;5116058;28;20372;-13
2022/06/21 11:59:24;;;;;;;;;;;26.60;41.30;;;30.77;25.87;101219.28;5116071;28;19994;-13
2022/06/21 12:02:21;;;;;;;;;;;26.60;41.30;;;30.79;26.08;101218.16;5115340;28;20255;-12
2022/06/21 12:05:01;;;;;;;;;;;26.60;41.30;;;30.77;26.00;101206.66;5115185;28;19916;-12